createdAt,value
2018-12-22T00:00:13.021Z,13.80
2018-12-22T00:01:13.039Z,10.50
2018-12-22T00:02:13.006Z,11.70
2018-12-22T00:03:13.013Z,10.70
2018-12-22T00:04:13.066Z,12.00
2018-12-22T00:05:12.971Z,13.60
2018-12-22T00:06:12.965Z,11.30
2018-12-22T00:07:12.941Z,10.00
2018-12-22T00:08:12.950Z,12.10
2018-12-22T00:09:12.940Z,10.00
2018-12-22T00:10:12.907Z,10.90
2018-12-22T00:11:12.912Z,12.10
2018-12-22T00:12:12.897Z,10.70
2018-12-22T00:13:12.874Z,11.20
2018-12-22T00:14:12.921Z,9.30
2018-12-22T00:15:12.869Z,9.00
2018-12-22T00:16:12.861Z,10.20
2018-12-22T00:17:12.920Z,10.80
2018-12-22T00:18:12.837Z,9.90
2018-12-22T00:19:12.844Z,9.90
2018-12-22T00:20:12.820Z,8.10
2018-12-22T00:21:12.811Z,9.20
2018-12-22T00:22:12.784Z,9.70
2018-12-22T00:23:12.773Z,10.60
2018-12-22T00:24:12.768Z,10.80
2018-12-22T00:25:12.773Z,9.90
2018-12-22T00:26:12.743Z,10.50
2018-12-22T00:27:12.720Z,7.70
2018-12-22T00:28:12.765Z,9.80
2018-12-22T00:29:12.708Z,9.80
2018-12-22T00:30:12.713Z,10.40
2018-12-22T00:31:12.692Z,8.70
2018-12-22T00:32:12.684Z,10.00
2018-12-22T00:33:12.666Z,9.90
2018-12-22T00:34:12.658Z,8.40
2018-12-22T00:35:12.680Z,8.90
2018-12-22T00:36:12.677Z,8.60
2018-12-22T00:37:12.616Z,8.90
2018-12-22T00:38:12.618Z,10.30
2018-12-22T00:39:12.604Z,9.60
2018-12-22T00:40:12.631Z,9.80
2018-12-22T00:41:12.607Z,9.10
2018-12-22T00:42:12.562Z,10.90
2018-12-22T00:43:12.633Z,9.70
2018-12-22T00:44:12.542Z,10.30
2018-12-22T00:45:12.529Z,7.40
2018-12-22T00:46:12.541Z,10.00
2018-12-22T00:47:12.510Z,6.60
2018-12-22T00:48:12.523Z,8.30
2018-12-22T00:49:12.483Z,8.10
2018-12-22T00:50:12.473Z,9.90
2018-12-22T00:51:12.502Z,9.40
2018-12-22T00:52:12.451Z,10.00
2018-12-22T00:53:12.439Z,9.00
2018-12-22T00:54:12.426Z,10.40
2018-12-22T00:55:12.440Z,8.90
2018-12-22T00:56:12.407Z,8.30
2018-12-22T00:57:12.452Z,7.80
2018-12-22T00:58:12.381Z,8.20
2018-12-22T00:59:12.376Z,8.70
2018-12-22T01:00:13.761Z,9.80
2018-12-22T01:01:12.383Z,9.50
2018-12-22T01:02:12.371Z,9.40
2018-12-22T01:03:12.331Z,7.40
2018-12-22T01:04:12.338Z,10.60
2018-12-22T01:05:12.307Z,9.40
2018-12-22T01:06:12.300Z,8.00
2018-12-22T01:07:12.317Z,9.90
2018-12-22T01:08:12.277Z,7.30
2018-12-22T01:09:12.270Z,7.70
2018-12-22T01:10:12.280Z,10.20
2018-12-22T01:11:12.252Z,9.30
2018-12-22T01:12:12.266Z,8.80
2018-12-22T01:13:12.250Z,8.40
2018-12-22T01:14:12.209Z,7.40
2018-12-22T01:15:12.200Z,7.30
2018-12-22T01:16:12.271Z,8.60
2018-12-22T01:17:12.203Z,8.50
2018-12-22T01:18:12.182Z,8.60
2018-12-22T01:19:12.154Z,9.40
2018-12-22T01:20:12.180Z,8.50
2018-12-22T01:21:12.140Z,10.40
2018-12-22T01:22:12.119Z,8.00
2018-12-22T01:23:12.151Z,8.50
2018-12-22T01:24:12.097Z,9.40
2018-12-22T01:25:12.099Z,8.50
2018-12-22T01:26:12.077Z,9.70
2018-12-22T01:27:12.066Z,9.50
2018-12-22T01:28:12.059Z,9.00
2018-12-22T01:29:12.071Z,9.80
2018-12-22T01:30:12.038Z,10.80
2018-12-22T01:31:12.038Z,9.50
2018-12-22T01:32:12.030Z,9.30
2018-12-22T01:33:12.003Z,11.10
2018-12-22T01:34:12.015Z,8.70
2018-12-22T01:35:11.983Z,7.80
2018-12-22T01:36:11.968Z,9.20
2018-12-22T01:37:11.954Z,8.40
2018-12-22T01:38:11.947Z,9.90
2018-12-22T01:39:11.969Z,10.60
2018-12-22T01:40:11.946Z,8.10
2018-12-22T01:41:11.930Z,8.70
2018-12-22T01:42:11.912Z,9.20
2018-12-22T01:43:11.889Z,8.80
2018-12-22T01:44:11.886Z,8.60
2018-12-22T01:45:11.899Z,9.00
2018-12-22T01:46:11.856Z,9.30
2018-12-22T01:47:11.844Z,9.90
2018-12-22T01:48:11.836Z,7.10
2018-12-22T01:49:11.824Z,9.10
2018-12-22T01:50:11.902Z,9.20
2018-12-22T01:51:11.799Z,11.30
2018-12-22T01:52:11.787Z,8.30
2018-12-22T01:53:11.774Z,10.50
2018-12-22T01:54:11.768Z,9.30
2018-12-22T01:55:11.792Z,9.10
2018-12-22T01:56:11.751Z,9.20
2018-12-22T01:57:11.738Z,10.30
2018-12-22T01:58:11.757Z,7.40
2018-12-22T01:59:11.713Z,10.20
2018-12-22T02:00:11.758Z,9.30
2018-12-22T02:01:11.688Z,8.80
2018-12-22T02:02:11.679Z,9.60
2018-12-22T02:03:11.669Z,11.10
2018-12-22T02:04:11.689Z,10.30
2018-12-22T02:05:11.645Z,11.30
2018-12-22T02:06:11.668Z,10.90
2018-12-22T02:07:11.621Z,9.70
2018-12-22T02:08:11.621Z,11.30
2018-12-22T02:09:11.609Z,9.90
2018-12-22T02:10:11.597Z,10.70
2018-12-22T02:11:11.864Z,10.00
2018-12-22T02:12:11.564Z,8.80
2018-12-22T02:13:11.561Z,10.20
2018-12-22T02:14:11.546Z,9.50
2018-12-22T02:15:11.542Z,11.20
2018-12-22T02:16:11.524Z,11.20
2018-12-22T02:17:11.532Z,9.00
2018-12-22T02:18:11.503Z,10.50
2018-12-22T02:19:11.493Z,11.30
2018-12-22T02:20:11.498Z,10.90
2018-12-22T02:21:11.470Z,10.40
2018-12-22T02:22:11.493Z,9.30
2018-12-22T02:23:11.448Z,11.10
2018-12-22T02:24:11.436Z,8.60
2018-12-22T02:25:11.442Z,8.80
2018-12-22T02:26:11.417Z,10.10
2018-12-22T02:27:11.428Z,8.70
2018-12-22T02:28:11.405Z,8.20
2018-12-22T02:29:11.426Z,9.40
2018-12-22T02:30:11.373Z,9.60
2018-12-22T02:31:11.376Z,8.30
2018-12-22T02:32:11.384Z,10.50
2018-12-22T02:33:11.340Z,8.00
2018-12-22T02:34:11.338Z,7.50
2018-12-22T02:35:11.316Z,10.40
2018-12-22T02:36:11.343Z,8.60
2018-12-22T02:37:11.333Z,10.40
2018-12-22T02:38:11.311Z,8.40
2018-12-22T02:39:11.277Z,9.90
2018-12-22T02:40:11.286Z,9.00
2018-12-22T02:41:11.250Z,10.50
2018-12-22T02:42:11.263Z,8.30
2018-12-22T02:43:11.251Z,10.70
2018-12-22T02:44:11.240Z,7.90
2018-12-22T02:45:11.213Z,7.20
2018-12-22T02:46:11.210Z,9.60
2018-12-22T02:47:11.213Z,9.60
2018-12-22T02:48:11.204Z,8.80
2018-12-22T02:49:11.165Z,8.50
2018-12-22T02:50:11.158Z,10.00
2018-12-22T02:51:11.135Z,8.10
2018-12-22T02:52:11.137Z,7.10
2018-12-22T02:53:11.145Z,7.10
2018-12-22T02:54:11.151Z,7.00
2018-12-22T02:55:11.130Z,5.80
2018-12-22T02:56:11.085Z,7.30
2018-12-22T02:57:11.068Z,5.40
2018-12-22T02:58:11.056Z,7.20
2018-12-22T02:59:11.085Z,4.70
2018-12-22T03:00:11.074Z,6.30
2018-12-22T03:01:11.024Z,8.20
2018-12-22T03:02:11.030Z,7.00
2018-12-22T03:03:11.021Z,6.30
2018-12-22T03:04:11.040Z,6.20
2018-12-22T03:05:10.998Z,6.30
2018-12-22T03:06:10.986Z,7.20
2018-12-22T03:07:10.956Z,7.50
2018-12-22T03:08:10.949Z,6.00
2018-12-22T03:09:10.968Z,5.30
2018-12-22T03:10:10.936Z,7.50
2018-12-22T03:11:10.914Z,6.10
2018-12-22T03:12:10.922Z,6.00
2018-12-22T03:13:10.898Z,7.00
2018-12-22T03:14:10.880Z,7.60
2018-12-22T03:15:10.901Z,6.00
2018-12-22T03:16:10.861Z,6.60
2018-12-22T03:17:10.863Z,6.40
2018-12-22T03:18:10.845Z,6.30
2018-12-22T03:19:10.873Z,6.40
2018-12-22T03:20:10.825Z,5.80
2018-12-22T03:21:10.809Z,5.10
2018-12-22T03:22:10.810Z,7.20
2018-12-22T03:23:10.795Z,5.80
2018-12-22T03:24:10.823Z,6.40
2018-12-22T03:25:10.764Z,6.90
2018-12-22T03:26:10.758Z,6.30
2018-12-22T03:27:10.751Z,6.70
2018-12-22T03:28:10.729Z,5.40
2018-12-22T03:29:15.549Z,4.60
2018-12-22T03:30:11.737Z,5.50
2018-12-22T03:31:10.703Z,5.30
2018-12-22T03:32:10.702Z,4.60
2018-12-22T03:33:10.714Z,6.30
2018-12-22T03:34:10.710Z,4.40
2018-12-22T03:35:10.701Z,5.40
2018-12-22T03:36:10.640Z,4.00
2018-12-22T03:37:10.637Z,4.70
2018-12-22T03:38:10.627Z,4.00
2018-12-22T03:39:10.609Z,4.90
2018-12-22T03:40:10.640Z,5.40
2018-12-22T03:41:10.586Z,3.60
2018-12-22T03:42:10.584Z,5.50
2018-12-22T03:43:10.578Z,3.80
2018-12-22T03:44:10.651Z,5.20
2018-12-22T03:45:10.578Z,3.80
2018-12-22T03:46:10.557Z,3.90
2018-12-22T03:47:10.534Z,3.90
2018-12-22T03:48:10.508Z,4.20
2018-12-22T03:49:10.520Z,3.80
2018-12-22T03:50:10.487Z,3.80
2018-12-22T03:51:10.505Z,3.90
2018-12-22T03:52:10.478Z,4.10
2018-12-22T03:53:10.449Z,3.70
2018-12-22T03:54:10.455Z,4.40
2018-12-22T03:55:10.428Z,3.40
2018-12-22T03:56:10.458Z,3.30
2018-12-22T03:57:10.416Z,3.90
2018-12-22T03:58:10.404Z,3.40
2018-12-22T03:59:10.383Z,3.00
2018-12-22T04:00:10.383Z,3.80
2018-12-22T04:01:10.382Z,3.10
2018-12-22T04:02:10.388Z,3.10
2018-12-22T04:03:11.949Z,2.90
2018-12-22T04:04:10.354Z,2.50
2018-12-22T04:05:10.317Z,2.70
2018-12-22T04:06:10.306Z,2.50
2018-12-22T04:07:10.321Z,2.40
2018-12-22T04:08:10.289Z,3.70
2018-12-22T04:09:10.280Z,3.80
2018-12-22T04:10:10.271Z,2.60
2018-12-22T04:11:10.257Z,2.30
2018-12-22T04:12:10.274Z,3.80
2018-12-22T04:13:10.237Z,1.80
2018-12-22T04:14:10.221Z,1.60
2018-12-22T04:15:10.217Z,2.80
2018-12-22T04:16:10.194Z,2.00
2018-12-22T04:17:10.195Z,2.50
2018-12-22T04:18:10.243Z,4.00
2018-12-22T04:19:10.169Z,3.80
2018-12-22T04:20:10.149Z,3.00
2018-12-22T04:21:10.156Z,2.40
2018-12-22T04:22:10.180Z,2.30
2018-12-22T04:23:10.149Z,3.20
2018-12-22T04:24:10.114Z,2.00
2018-12-22T04:25:10.102Z,2.90
2018-12-22T04:26:10.097Z,2.50
2018-12-22T04:27:10.092Z,2.00
2018-12-22T04:28:10.099Z,2.70
2018-12-22T04:29:10.058Z,1.90
2018-12-22T04:30:10.040Z,3.20
2018-12-22T04:31:10.031Z,2.10
2018-12-22T04:32:10.040Z,2.60
2018-12-22T04:33:10.017Z,1.80
2018-12-22T04:34:10.078Z,2.20
2018-12-22T04:35:09.983Z,2.00
2018-12-22T04:36:09.981Z,1.40
2018-12-22T04:37:09.965Z,2.60
2018-12-22T04:38:09.951Z,1.70
2018-12-22T04:39:09.970Z,2.60
2018-12-22T04:40:09.932Z,2.30
2018-12-22T04:41:09.920Z,2.50
2018-12-22T04:42:09.958Z,2.60
2018-12-22T04:43:09.900Z,1.90
2018-12-22T04:44:09.910Z,1.50
2018-12-22T04:45:09.876Z,2.10
2018-12-22T04:46:09.877Z,2.20
2018-12-22T04:47:09.865Z,3.20
2018-12-22T04:48:09.845Z,2.40
2018-12-22T04:49:09.876Z,1.50
2018-12-22T04:50:09.829Z,1.60
2018-12-22T04:51:09.805Z,1.60
2018-12-22T04:52:09.830Z,2.60
2018-12-22T04:53:09.789Z,1.70
2018-12-22T04:54:09.803Z,2.00
2018-12-22T04:55:09.808Z,1.70
2018-12-22T04:56:09.759Z,1.90
2018-12-22T04:57:09.808Z,2.40
2018-12-22T04:58:09.729Z,1.80
2018-12-22T04:59:09.721Z,1.50
2018-12-22T05:00:09.764Z,1.20
2018-12-22T05:01:09.706Z,1.90
2018-12-22T05:02:09.685Z,1.40
2018-12-22T05:03:09.680Z,1.80
2018-12-22T05:04:09.662Z,1.20
2018-12-22T05:05:09.681Z,1.20
2018-12-22T05:06:09.698Z,2.00
2018-12-22T05:07:09.659Z,1.40
2018-12-22T05:08:09.629Z,1.60
2018-12-22T05:09:09.620Z,1.50
2018-12-22T05:10:09.681Z,1.90
2018-12-22T05:11:09.622Z,1.10
2018-12-22T05:12:09.589Z,1.30
2018-12-22T05:13:09.595Z,1.50
2018-12-22T05:14:09.572Z,1.80
2018-12-22T05:15:09.543Z,1.10
2018-12-22T05:16:09.573Z,2.20
2018-12-22T05:17:09.521Z,2.30
2018-12-22T05:18:09.528Z,1.00
2018-12-22T05:19:09.515Z,1.50
2018-12-22T05:20:09.488Z,1.50
2018-12-22T05:21:09.541Z,1.40
2018-12-22T05:22:09.491Z,1.20
2018-12-22T05:23:09.452Z,1.20
2018-12-22T05:24:09.450Z,1.20
2018-12-22T05:25:09.438Z,1.10
2018-12-22T05:26:09.420Z,1.00
2018-12-22T05:27:09.439Z,1.30
2018-12-22T05:28:09.418Z,1.40
2018-12-22T05:29:09.428Z,1.10
2018-12-22T05:30:09.407Z,1.30
2018-12-22T05:31:09.371Z,1.70
2018-12-22T05:32:09.782Z,1.40
2018-12-22T05:33:09.344Z,1.30
2018-12-22T05:34:09.337Z,1.00
2018-12-22T05:35:09.352Z,1.30
2018-12-22T05:36:09.325Z,2.20
2018-12-22T05:37:09.314Z,1.20
2018-12-22T05:38:09.334Z,1.40
2018-12-22T05:39:09.279Z,1.70
2018-12-22T05:40:09.281Z,1.60
2018-12-22T05:41:09.261Z,1.70
2018-12-22T05:42:09.267Z,1.20
2018-12-22T05:43:09.257Z,2.10
2018-12-22T05:44:09.235Z,1.40
2018-12-22T05:45:09.211Z,1.40
2018-12-22T05:46:09.215Z,1.40
2018-12-22T05:47:09.208Z,1.90
2018-12-22T05:48:09.220Z,1.20
2018-12-22T05:49:09.164Z,1.50
2018-12-22T05:50:09.184Z,1.30
2018-12-22T05:51:09.150Z,1.40
2018-12-22T05:52:09.148Z,2.10
2018-12-22T05:53:09.152Z,1.60
2018-12-22T05:54:09.149Z,1.60
2018-12-22T05:55:09.118Z,1.20
2018-12-22T05:56:09.103Z,1.90
2018-12-22T05:57:09.115Z,1.30
2018-12-22T05:58:09.072Z,1.20
2018-12-22T05:59:09.104Z,1.20
2018-12-22T06:00:09.043Z,2.20
2018-12-22T06:01:09.048Z,1.20
2018-12-22T06:02:09.055Z,1.20
2018-12-22T06:03:09.021Z,1.30
2018-12-22T06:04:09.103Z,1.80
2018-12-22T06:05:08.995Z,2.20
2018-12-22T06:06:08.985Z,1.90
2018-12-22T06:07:08.965Z,1.10
2018-12-22T06:08:08.957Z,1.40
2018-12-22T06:09:09.001Z,1.40
2018-12-22T06:10:08.962Z,1.50
2018-12-22T06:11:08.953Z,2.30
2018-12-22T06:12:08.918Z,2.10
2018-12-22T06:13:08.902Z,1.80
2018-12-22T06:14:08.906Z,1.90
2018-12-22T06:15:08.903Z,2.00
2018-12-22T06:16:08.889Z,1.80
2018-12-22T06:17:08.869Z,1.40
2018-12-22T06:18:08.857Z,2.20
2018-12-22T06:19:08.846Z,1.70
2018-12-22T06:20:08.966Z,1.70
2018-12-22T06:21:08.846Z,2.00
2018-12-22T06:22:08.806Z,2.40
2018-12-22T06:23:08.791Z,2.10
2018-12-22T06:24:08.815Z,2.00
2018-12-22T06:25:08.843Z,2.00
2018-12-22T06:26:08.779Z,2.30
2018-12-22T06:27:08.770Z,2.10
2018-12-22T06:28:08.736Z,2.90
2018-12-22T06:29:08.732Z,2.80
2018-12-22T06:30:09.351Z,2.50
2018-12-22T06:31:08.745Z,2.40
2018-12-22T06:32:08.692Z,3.30
2018-12-22T06:33:08.688Z,2.30
2018-12-22T06:34:08.684Z,2.70
2018-12-22T06:35:08.657Z,3.10
2018-12-22T06:36:08.707Z,2.10
2018-12-22T06:37:08.636Z,2.20
2018-12-22T06:38:08.638Z,4.20
2018-12-22T06:39:08.638Z,3.80
2018-12-22T06:40:08.632Z,2.60
2018-12-22T06:41:08.623Z,4.30
2018-12-22T06:42:08.580Z,2.80
2018-12-22T06:43:08.572Z,4.70
2018-12-22T06:44:08.565Z,3.80
2018-12-22T06:45:08.560Z,4.90
2018-12-22T06:46:08.540Z,3.30
2018-12-22T06:47:08.547Z,4.10
2018-12-22T06:48:08.515Z,4.20
2018-12-22T06:49:08.547Z,4.30
2018-12-22T06:50:08.500Z,4.70
2018-12-22T06:51:08.517Z,3.90
2018-12-22T06:52:08.513Z,5.10
2018-12-22T06:53:08.499Z,4.40
2018-12-22T06:54:08.464Z,4.50
2018-12-22T06:55:08.440Z,4.50
2018-12-22T06:56:08.478Z,5.80
2018-12-22T06:57:08.463Z,5.20
2018-12-22T06:58:08.406Z,6.50
2018-12-22T06:59:08.433Z,5.60
2018-12-22T07:00:08.385Z,6.80
2018-12-22T07:01:08.383Z,6.80
2018-12-22T07:02:08.459Z,6.20
2018-12-22T07:03:08.383Z,6.60
2018-12-22T07:04:08.343Z,6.80
2018-12-22T07:05:08.368Z,9.40
2018-12-22T07:06:08.323Z,8.70
2018-12-22T07:07:08.313Z,7.90
2018-12-22T07:08:08.323Z,9.30
2018-12-22T07:09:08.282Z,8.90
2018-12-22T07:10:08.302Z,10.50
2018-12-22T07:11:08.338Z,10.40
2018-12-22T07:12:08.255Z,10.80
2018-12-22T07:13:08.279Z,9.50
2018-12-22T07:14:08.230Z,10.60
2018-12-22T07:15:08.222Z,9.70
2018-12-22T07:16:08.229Z,12.10
2018-12-22T07:17:08.200Z,11.40
2018-12-22T07:18:08.194Z,9.60
2018-12-22T07:19:08.219Z,12.10
2018-12-22T07:20:08.161Z,9.50
2018-12-22T07:21:08.153Z,9.60
2018-12-22T07:22:08.160Z,9.90
2018-12-22T07:23:08.128Z,10.30
2018-12-22T07:24:08.162Z,10.90
2018-12-22T07:25:08.116Z,11.80
2018-12-22T07:26:08.203Z,9.60
2018-12-22T07:27:08.088Z,9.90
2018-12-22T07:28:08.076Z,12.30
2018-12-22T07:29:08.093Z,11.20
2018-12-22T07:30:08.080Z,9.50
2018-12-22T07:31:08.039Z,12.20
2018-12-22T07:32:08.034Z,12.10
2018-12-22T07:33:08.033Z,11.70
2018-12-22T07:34:08.035Z,9.00
2018-12-22T07:35:08.022Z,9.50
2018-12-22T07:36:07.985Z,13.20
2018-12-22T07:37:07.973Z,9.40
2018-12-22T07:38:07.967Z,10.30
2018-12-22T07:39:07.952Z,9.00
2018-12-22T07:40:07.962Z,10.80
2018-12-22T07:41:07.940Z,10.90
2018-12-22T07:42:07.931Z,10.60
2018-12-22T07:43:07.908Z,10.70
2018-12-22T07:44:07.895Z,10.40
2018-12-22T07:45:07.910Z,11.70
2018-12-22T07:46:07.873Z,12.50
2018-12-22T07:47:07.904Z,12.40
2018-12-22T07:48:07.884Z,12.60
2018-12-22T07:49:07.839Z,12.00
2018-12-22T07:50:07.890Z,9.80
2018-12-22T07:51:07.851Z,10.30
2018-12-22T07:52:07.853Z,9.10
2018-12-22T07:53:07.810Z,7.80
2018-12-22T07:54:07.810Z,11.00
2018-12-22T07:55:07.773Z,10.00
2018-12-22T07:56:07.780Z,9.00
2018-12-22T07:57:07.779Z,11.60
2018-12-22T07:58:07.743Z,10.30
2018-12-22T07:59:07.746Z,11.50
2018-12-22T08:00:07.764Z,12.40
2018-12-22T08:01:07.799Z,10.00
2018-12-22T08:02:07.713Z,9.60
2018-12-22T08:03:07.786Z,12.20
2018-12-22T08:04:07.674Z,10.20
2018-12-22T08:05:07.671Z,9.80
2018-12-22T08:06:07.699Z,11.60
2018-12-22T08:07:07.653Z,9.10
2018-12-22T08:08:07.637Z,13.60
2018-12-22T08:09:07.638Z,11.40
2018-12-22T08:10:07.648Z,11.60
2018-12-22T08:11:07.611Z,10.30
2018-12-22T08:12:07.593Z,12.20
2018-12-22T08:13:07.613Z,12.10
2018-12-22T08:14:07.576Z,11.60
2018-12-22T08:15:07.581Z,11.80
2018-12-22T08:16:07.556Z,10.80
2018-12-22T08:17:07.534Z,11.60
2018-12-22T08:18:07.541Z,14.20
2018-12-22T08:19:07.532Z,10.60
2018-12-22T08:20:07.526Z,13.10
2018-12-22T08:21:07.490Z,9.00
2018-12-22T08:22:08.590Z,12.10
2018-12-22T08:23:07.488Z,12.50
2018-12-22T08:24:07.486Z,11.20
2018-12-22T08:25:07.498Z,13.50
2018-12-22T08:26:07.478Z,11.80
2018-12-22T08:27:07.454Z,11.90
2018-12-22T08:28:07.420Z,11.50
2018-12-22T08:29:07.400Z,11.60
2018-12-22T08:30:07.391Z,10.60
2018-12-22T08:31:07.409Z,10.80
2018-12-22T08:32:07.392Z,12.10
2018-12-22T08:33:07.424Z,12.60
2018-12-22T08:34:07.383Z,10.50
2018-12-22T08:35:07.344Z,11.90
2018-12-22T08:36:07.366Z,12.60
2018-12-22T08:37:07.333Z,11.20
2018-12-22T08:38:07.332Z,11.90
2018-12-22T08:39:07.300Z,11.30
2018-12-22T08:40:07.298Z,11.50
2018-12-22T08:41:07.293Z,10.80
2018-12-22T08:42:07.315Z,12.80
2018-12-22T08:43:07.263Z,11.70
2018-12-22T08:44:07.268Z,12.50
2018-12-22T08:45:07.230Z,12.10
2018-12-22T08:46:07.255Z,13.70
2018-12-22T08:47:07.225Z,11.50
2018-12-22T08:48:07.203Z,12.20
2018-12-22T08:49:07.209Z,13.80
2018-12-22T08:50:09.394Z,12.00
2018-12-22T08:51:07.167Z,12.80
2018-12-22T08:52:07.159Z,12.70
2018-12-22T08:53:07.137Z,10.40
2018-12-22T08:54:07.146Z,12.30
2018-12-22T08:55:07.138Z,11.40
2018-12-22T08:56:07.114Z,10.00
2018-12-22T08:57:07.102Z,10.10
2018-12-22T08:58:07.091Z,9.80
2018-12-22T08:59:07.071Z,11.50
2018-12-22T09:00:07.095Z,11.30
2018-12-22T09:01:07.069Z,8.60
2018-12-22T09:02:07.049Z,10.60
2018-12-22T09:03:07.034Z,12.30
2018-12-22T09:04:07.025Z,10.70
2018-12-22T09:05:07.013Z,12.40
2018-12-22T09:06:07.085Z,10.10
2018-12-22T09:07:07.016Z,9.20
2018-12-22T09:08:06.985Z,12.90
2018-12-22T09:09:06.964Z,10.30
2018-12-22T09:10:06.957Z,8.90
2018-12-22T09:11:06.992Z,11.70
2018-12-22T09:12:06.933Z,11.20
2018-12-22T09:13:06.927Z,10.60
2018-12-22T09:14:06.947Z,15.70
2018-12-22T09:15:06.899Z,12.70
2018-12-22T09:16:06.926Z,11.50
2018-12-22T09:17:06.877Z,9.30
2018-12-22T09:18:06.865Z,10.50
2018-12-22T09:19:06.883Z,10.20
2018-12-22T09:20:06.884Z,11.30
2018-12-22T09:21:06.844Z,11.90
2018-12-22T09:22:06.836Z,10.20
2018-12-22T09:23:06.814Z,10.10
2018-12-22T09:24:06.822Z,7.80
2018-12-22T09:25:06.825Z,6.30
2018-12-22T09:26:08.503Z,8.50
2018-12-22T09:27:06.778Z,9.10
2018-12-22T09:28:06.758Z,8.20
2018-12-22T09:29:06.746Z,7.40
2018-12-22T09:30:06.771Z,9.00
2018-12-22T09:31:06.724Z,9.20
2018-12-22T09:32:06.712Z,9.60
2018-12-22T09:33:06.717Z,7.30
2018-12-22T09:34:13.257Z,7.50
2018-12-22T09:35:07.724Z,8.40
2018-12-22T09:36:06.685Z,10.90
2018-12-22T09:37:07.010Z,9.60
2018-12-22T09:38:06.644Z,7.50
2018-12-22T09:39:06.634Z,8.50
2018-12-22T09:40:06.644Z,7.80
2018-12-22T09:41:06.671Z,9.90
2018-12-22T09:42:06.599Z,9.80
2018-12-22T09:43:06.602Z,11.80
2018-12-22T09:44:06.593Z,8.60
2018-12-22T09:45:06.605Z,10.80
2018-12-22T09:46:06.555Z,6.10
2018-12-22T09:47:06.556Z,7.00
2018-12-22T09:48:06.541Z,5.30
2018-12-22T09:49:06.536Z,3.00
2018-12-22T09:50:06.540Z,3.90
2018-12-22T09:51:06.504Z,4.50
2018-12-22T09:52:06.499Z,2.80
2018-12-22T09:53:06.509Z,4.40
2018-12-22T09:54:06.496Z,2.90
2018-12-22T09:55:06.522Z,3.40
2018-12-22T09:56:06.515Z,4.10
2018-12-22T09:57:06.438Z,3.30
2018-12-22T09:58:06.433Z,3.80
2018-12-22T09:59:06.615Z,3.30
2018-12-22T10:00:06.451Z,3.80
2018-12-22T10:01:09.404Z,4.30
2018-12-22T10:02:06.401Z,3.20
2018-12-22T10:03:06.368Z,3.20
2018-12-22T10:04:06.364Z,3.30
2018-12-22T10:05:06.378Z,3.60
2018-12-22T10:06:06.335Z,2.60
2018-12-22T10:07:06.379Z,2.50
2018-12-22T10:08:06.453Z,2.90
2018-12-22T10:09:06.301Z,3.30
2018-12-22T10:10:06.296Z,3.20
2018-12-22T10:11:06.314Z,4.80
2018-12-22T10:12:06.279Z,2.90
2018-12-22T10:13:06.270Z,2.80
2018-12-22T10:14:06.250Z,3.00
2018-12-22T10:15:06.308Z,4.10
2018-12-22T10:16:06.289Z,7.00
2018-12-22T10:17:06.295Z,3.00
2018-12-22T10:18:06.204Z,2.50
2018-12-22T10:19:06.202Z,2.50
2018-12-22T10:20:06.183Z,2.50
2018-12-22T10:21:06.226Z,2.20
2018-12-22T10:22:06.220Z,3.50
2018-12-22T10:23:06.157Z,2.50
2018-12-22T10:24:06.140Z,1.90
2018-12-22T10:25:06.152Z,2.40
2018-12-22T10:26:06.144Z,1.80
2018-12-22T10:27:06.154Z,1.60
2018-12-22T10:28:06.153Z,1.40
2018-12-22T10:29:06.094Z,3.70
2018-12-22T10:30:06.104Z,2.30
2018-12-22T10:31:06.105Z,3.70
2018-12-22T10:32:06.070Z,2.30
2018-12-22T10:33:06.062Z,1.20
2018-12-22T10:34:06.073Z,1.50
2018-12-22T10:35:06.017Z,1.70
2018-12-22T10:36:06.035Z,2.50
2018-12-22T10:37:06.014Z,4.50
2018-12-22T10:38:05.999Z,5.00
2018-12-22T10:39:05.990Z,2.10
2018-12-22T10:40:05.980Z,2.20
2018-12-22T10:41:05.987Z,1.90
2018-12-22T10:42:05.944Z,3.00
2018-12-22T10:43:05.945Z,2.30
2018-12-22T10:44:05.927Z,4.20
2018-12-22T10:45:05.920Z,8.10
2018-12-22T10:46:05.915Z,7.60
2018-12-22T10:47:05.902Z,4.50
2018-12-22T10:48:05.889Z,3.10
2018-12-22T10:49:05.894Z,2.60
2018-12-22T10:50:05.858Z,2.50
2018-12-22T10:51:05.930Z,4.00
2018-12-22T10:52:05.867Z,3.90
2018-12-22T10:53:05.822Z,3.80
2018-12-22T10:54:05.818Z,10.00
2018-12-22T10:55:05.811Z,12.70
2018-12-22T10:56:05.830Z,2.50
2018-12-22T10:57:05.784Z,7.50
2018-12-22T10:58:05.776Z,9.90
2018-12-22T10:59:05.761Z,14.50
2018-12-22T11:00:05.750Z,15.90
2018-12-22T11:01:05.764Z,3.20
2018-12-22T11:02:05.758Z,5.10
2018-12-22T11:03:05.711Z,4.90
2018-12-22T11:04:05.702Z,3.30
2018-12-22T11:05:05.694Z,1.60
2018-12-22T11:06:05.749Z,11.30
2018-12-22T11:07:05.695Z,8.20
2018-12-22T11:08:05.662Z,2.80
2018-12-22T11:09:05.657Z,2.20
2018-12-22T11:10:05.642Z,3.40
2018-12-22T11:11:05.627Z,3.40
2018-12-22T11:12:05.668Z,1.30
2018-12-22T11:13:05.638Z,1.20
2018-12-22T11:14:05.628Z,1.50
2018-12-22T11:15:05.585Z,1.00
2018-12-22T11:16:05.596Z,1.10
2018-12-22T11:17:05.613Z,1.70
2018-12-22T11:18:05.576Z,1.40
2018-12-22T11:19:05.541Z,3.20
2018-12-22T11:20:05.526Z,4.30
2018-12-22T11:21:05.526Z,1.60
2018-12-22T11:22:05.505Z,1.10
2018-12-22T11:23:05.517Z,0.70
2018-12-22T11:24:05.497Z,1.40
2018-12-22T11:25:05.487Z,1.00
2018-12-22T11:26:05.470Z,1.20
2018-12-22T11:27:05.473Z,1.00
2018-12-22T11:28:05.493Z,0.90
2018-12-22T11:29:05.453Z,0.90
2018-12-22T11:30:05.420Z,1.10
2018-12-22T11:31:05.417Z,0.90
2018-12-22T11:32:05.441Z,0.90
2018-12-22T11:33:05.429Z,0.80
2018-12-22T11:34:05.417Z,0.80
2018-12-22T11:35:05.364Z,1.30
2018-12-22T11:36:05.391Z,1.20
2018-12-22T11:37:05.353Z,1.00
2018-12-22T11:38:05.350Z,0.90
2018-12-22T11:39:05.362Z,1.50
2018-12-22T11:40:05.312Z,1.70
2018-12-22T11:41:05.297Z,2.00
2018-12-22T11:42:05.283Z,1.30
2018-12-22T11:43:05.302Z,1.50
2018-12-22T11:44:05.283Z,0.70
2018-12-22T11:45:05.263Z,0.80
2018-12-22T11:46:05.252Z,1.30
2018-12-22T11:47:05.257Z,0.70
2018-12-22T11:48:05.229Z,0.90
2018-12-22T11:49:05.216Z,0.70
2018-12-22T11:50:05.201Z,1.00
2018-12-22T11:51:05.193Z,1.10
2018-12-22T11:52:05.211Z,1.00
2018-12-22T11:53:05.169Z,0.70
2018-12-22T11:54:05.158Z,0.60
2018-12-22T11:55:05.190Z,0.70
2018-12-22T11:56:05.132Z,0.60
2018-12-22T11:57:05.168Z,0.80
2018-12-22T11:58:05.132Z,0.70
2018-12-22T11:59:05.111Z,0.70
2018-12-22T12:00:05.089Z,1.00
2018-12-22T12:01:05.084Z,0.60
2018-12-22T12:02:09.501Z,0.90
2018-12-22T12:03:06.058Z,0.80
2018-12-22T12:04:05.052Z,0.90
2018-12-22T12:05:05.034Z,0.50
2018-12-22T12:06:05.054Z,0.70
2018-12-22T12:07:05.063Z,0.80
2018-12-22T12:08:04.999Z,0.60
2018-12-22T12:09:04.991Z,0.50
2018-12-22T12:10:05.002Z,0.40
2018-12-22T12:11:04.996Z,0.50
2018-12-22T12:12:05.006Z,0.60
2018-12-22T12:13:04.954Z,0.60
2018-12-22T12:14:04.937Z,0.70
2018-12-22T12:15:04.943Z,0.60
2018-12-22T12:16:04.925Z,0.50
2018-12-22T12:17:04.924Z,0.60
2018-12-22T12:18:04.916Z,0.50
2018-12-22T12:19:04.909Z,0.80
2018-12-22T12:20:04.915Z,0.70
2018-12-22T12:21:04.869Z,0.70
2018-12-22T12:22:04.849Z,0.50
2018-12-22T12:23:04.860Z,0.60
2018-12-22T12:24:04.832Z,0.60
2018-12-22T12:25:04.837Z,0.70
2018-12-22T12:26:04.806Z,1.20
2018-12-22T12:27:04.798Z,0.50
2018-12-22T12:28:04.829Z,0.70
2018-12-22T12:29:04.784Z,0.60
2018-12-22T12:30:04.776Z,0.60
2018-12-22T12:31:04.758Z,0.60
2018-12-22T12:32:04.741Z,1.10
2018-12-22T12:33:04.749Z,0.60
2018-12-22T12:34:04.723Z,0.70
2018-12-22T12:35:04.719Z,0.60
2018-12-22T12:36:04.721Z,1.20
2018-12-22T12:37:04.687Z,0.80
2018-12-22T12:38:04.731Z,0.90
2018-12-22T12:39:04.664Z,1.00
2018-12-22T12:40:04.691Z,0.80
2018-12-22T12:41:04.681Z,0.90
2018-12-22T12:42:04.645Z,0.60
2018-12-22T12:43:04.672Z,1.30
2018-12-22T12:44:04.607Z,0.80
2018-12-22T12:45:04.601Z,1.10
2018-12-22T12:46:04.584Z,0.80
2018-12-22T12:47:04.576Z,0.90
2018-12-22T12:48:04.567Z,1.90
2018-12-22T12:49:04.575Z,1.50
2018-12-22T12:50:04.563Z,1.20
2018-12-22T12:51:04.588Z,2.10
2018-12-22T12:52:04.525Z,0.80
2018-12-22T12:53:09.533Z,0.70
2018-12-22T12:54:05.494Z,1.30
2018-12-22T12:55:04.485Z,0.80
2018-12-22T12:56:04.496Z,0.70
2018-12-22T12:57:04.464Z,0.70
2018-12-22T12:58:04.509Z,0.90
2018-12-22T12:59:04.460Z,0.80
2018-12-22T13:00:04.437Z,0.80
2018-12-22T13:01:04.514Z,0.70
2018-12-22T13:02:04.442Z,0.80
2018-12-22T13:03:04.402Z,1.20
2018-12-22T13:04:04.428Z,1.00
2018-12-22T13:05:04.381Z,0.80
2018-12-22T13:06:04.359Z,0.90
2018-12-22T13:07:04.350Z,0.80
2018-12-22T13:08:04.344Z,0.90
2018-12-22T13:09:04.352Z,1.20
2018-12-22T13:10:04.317Z,0.90
2018-12-22T13:11:04.309Z,0.80
2018-12-22T13:12:04.307Z,1.00